EGHH/BOH METAR and TAF weather

Enter ICAO airport designator
Station Type Date Time Source
EGHH METAR 2024/04/17 17:50 UTC NOAA

EGHH 171750Z 31010KT 270V340 9999 SCT040 10/02 Q1016


Station Type Date Time Source
EGHH Decoded METAR 2024/04/17 17:50 UTC NOAA

Bournemouth Airport, United Kingdom (EGHH) 50-47N 001-50W 0M
Apr 17, 2024 - 01:50 PM EDT / 2024.04.17 1750 UTC
Wind: from the NW (310 degrees) at 12 MPH (10 KT) (direction variable):0
Visibility: greater than 7 mile(s):0
Sky conditions: partly cloudy
Temperature: 50 F (10 C)
Dew Point: 35 F (2 C)
Relative Humidity: 57%
Pressure (altimeter): 30.00 in. Hg (1016 hPa)
ob: EGHH 171750Z 31010KT 270V340 9999 SCT040 10/02 Q1016
cycle: 18

Station Type Date Time Source
EGHH TAF 2023/07/15 21:58 UTC NOAA